Time;durP1;ratioP1;P1;durP2;ratioP2;P2;SDS_P1;SDS_P2;PMS_P1;PMS_P2;Temp;Humidity;BMP_temperature;BMP_pressure;BME280_temperature;BME280_humidity;BME280_pressure;Samples;Min_cycle;Max_cycle;Signal;HPM_P1;HPM_P2
2021/01/29 00:00:34;;;;;;;30.63;16.48;;;2.20;95.00;;;;;;5128386;27;20043;-83
2021/01/29 00:03:02;;;;;;;29.67;16.42;;;2.30;95.10;;;;;;5128506;27;20027;-83
2021/01/29 00:05:32;;;;;;;27.80;16.05;;;2.20;95.10;;;;;;5128692;27;20394;-83
2021/01/29 00:07:58;;;;;;;29.98;16.08;;;2.20;95.20;;;;;;5132219;27;20035;-84
2021/01/29 00:10:24;;;;;;;29.08;16.55;;;2.20;95.10;;;;;;5125928;27;20066;-83
2021/01/29 00:12:49;;;;;;;28.75;16.40;;;2.20;95.10;;;;;;5129669;27;20134;-83
2021/01/29 00:15:20;;;;;;;26.55;16.02;;;2.20;95.20;;;;;;5128194;27;20031;-82
2021/01/29 00:17:45;;;;;;;29.52;16.88;;;2.30;95.30;;;;;;5128308;27;20039;-84
2021/01/29 00:20:15;;;;;;;28.10;15.90;;;2.20;95.30;;;;;;5129543;27;20418;-84
2021/01/29 00:22:41;;;;;;;27.30;15.60;;;2.30;95.40;;;;;;5129494;27;20108;-83
2021/01/29 00:25:09;;;;;;;27.05;16.00;;;2.30;95.40;;;;;;5150877;27;20475;-81
2021/01/29 00:27:36;;;;;;;29.42;16.48;;;2.20;95.40;;;;;;5115132;27;20077;-82
2021/01/29 00:30:04;;;;;;;28.23;15.90;;;2.30;95.50;;;;;;5132155;27;20039;-83
2021/01/29 00:32:30;;;;;;;30.00;16.85;;;2.30;95.80;;;;;;5126720;27;20039;-83
2021/01/29 00:34:56;;;;;;;31.55;16.52;;;2.30;95.50;;;;;;5130317;27;20042;-83
2021/01/29 00:37:22;;;;;;;27.38;15.25;;;2.20;95.60;;;;;;5134207;27;20062;-83
2021/01/29 00:39:48;;;;;;;26.60;15.45;;;2.30;95.60;;;;;;5130440;27;20043;-83
2021/01/29 00:42:14;;;;;;;27.27;15.80;;;2.30;95.70;;;;;;5127908;27;20432;-83
2021/01/29 00:44:40;;;;;;;27.23;15.23;;;2.30;95.70;;;;;;5131760;28;20035;-83
2021/01/29 00:47:06;;;;;;;30.00;15.75;;;2.30;95.70;;;;;;5126496;28;20035;-81
2021/01/29 00:49:32;;;;;;;26.92;14.85;;;2.30;95.80;;;;;;5127099;28;20088;-83
2021/01/29 00:51:58;;;;;;;26.60;14.60;;;2.30;95.80;;;;;;5131875;28;20096;-83
2021/01/29 00:54:24;;;;;;;24.63;13.98;;;2.30;95.80;;;;;;5148390;27;20040;-83
2021/01/29 00:56:49;;;;;;;26.65;14.80;;;2.30;95.70;;;;;;5127986;27;20130;-83
2021/01/29 00:59:15;;;;;;;26.20;14.52;;;2.30;95.80;;;;;;5129270;28;20042;-83
2021/01/29 01:01:41;;;;;;;26.15;14.57;;;2.30;96.10;;;;;;5127770;27;20406;-83
2021/01/29 01:04:07;;;;;;;23.88;13.70;;;2.30;95.80;;;;;;5129444;27;20039;-81
2021/01/29 01:06:33;;;;;;;28.48;14.13;;;2.40;95.90;;;;;;5145455;27;20483;-83
2021/01/29 01:08:58;;;;;;;26.17;14.25;;;2.40;95.90;;;;;;5124212;27;20067;-83
2021/01/29 01:11:24;;;;;;;24.38;13.75;;;2.40;95.90;;;;;;5128356;27;20039;-82
2021/01/29 01:13:50;;;;;;;26.95;14.48;;;2.40;95.90;;;;;;5130765;28;20046;-83
2021/01/29 01:16:16;;;;;;;24.95;14.60;;;2.40;96.00;;;;;;5127031;27;20475;-83
2021/01/29 01:18:42;;;;;;;26.88;14.52;;;2.40;95.90;;;;;;5127848;27;20406;-82
2021/01/29 01:21:08;;;;;;;29.48;14.98;;;2.40;95.90;;;;;;5131414;28;20051;-81
2021/01/29 01:23:33;;;;;;;22.20;13.07;;;2.40;95.90;;;;;;5127496;27;20546;-83
2021/01/29 01:25:59;;;;;;;26.20;14.00;;;2.40;96.00;;;;;;5127796;27;20043;-83
2021/01/29 01:28:25;;;;;;;28.17;14.05;;;2.50;96.00;;;;;;5130705;28;20479;-83
2021/01/29 01:30:51;;;;;;;26.70;14.13;;;2.40;96.00;;;;;;5127746;27;20039;-83
2021/01/29 01:33:17;;;;;;;23.30;13.43;;;2.50;96.00;;;;;;5126952;27;20065;-83
2021/01/29 01:35:42;;;;;;;22.38;12.80;;;2.40;96.00;;;;;;5139060;27;20035;-82
2021/01/29 01:38:08;;;;;;;25.60;13.02;;;2.50;96.10;;;;;;5145145;27;20035;-81
2021/01/29 01:40:40;;;;;;;22.90;12.95;;;2.50;96.10;;;;;;5117434;27;20046;-81
2021/01/29 01:43:07;;;;;;;23.27;12.35;;;2.50;96.10;;;;;;5130927;27;20048;-83
2021/01/29 01:45:33;;;;;;;21.63;12.82;;;2.50;96.10;;;;;;5127799;27;20043;-83
2021/01/29 01:48:10;;;;;;;20.55;11.55;;;2.50;96.20;;;;;;5127858;27;20126;-83
2021/01/29 01:50:39;;;;;;;24.05;12.10;;;2.50;96.20;;;;;;5114431;27;20070;-82
2021/01/29 01:53:24;;;;;;;23.23;12.10;;;2.50;96.20;;;;;;5134064;27;20031;-83
2021/01/29 01:55:57;;;;;;;22.38;11.80;;;2.50;96.20;;;;;;5130972;27;20039;-83
2021/01/29 01:58:24;;;;;;;21.88;12.20;;;2.50;96.20;;;;;;5131061;27;20027;-83
2021/01/29 02:00:50;;;;;;;22.75;12.45;;;2.50;96.20;;;;;;5134921;27;20035;-83
2021/01/29 02:03:21;;;;;;;20.05;11.68;;;2.50;96.20;;;;;;5130453;27;20035;-82
2021/01/29 02:05:48;;;;;;;20.77;11.63;;;2.50;96.20;;;;;;5131706;27;20110;-83
2021/01/29 02:08:16;;;;;;;22.83;12.50;;;2.60;96.30;;;;;;5134094;27;20122;-81
2021/01/29 02:10:43;;;;;;;21.33;12.27;;;2.50;96.20;;;;;;5129166;27;20066;-83
2021/01/29 02:13:09;;;;;;;24.90;13.43;;;2.50;96.30;;;;;;5130352;27;20057;-83
2021/01/29 02:15:38;;;;;;;25.75;13.38;;;2.50;96.30;;;;;;5133153;27;20495;-81
2021/01/29 02:18:48;;;;;;;25.83;13.52;;;2.60;96.30;;;;;;5130831;27;20035;-83
2021/01/29 02:21:48;;;;;;;24.90;13.32;;;2.50;96.30;;;;;;5130171;27;20051;-81
2021/01/29 02:24:23;;;;;;;23.67;13.43;;;2.50;96.40;;;;;;5129322;27;20482;-81
2021/01/29 02:27:22;;;;;;;27.27;13.98;;;2.50;96.30;;;;;;5131948;27;20065;-83
2021/01/29 02:30:08;;;;;;;26.67;13.90;;;2.50;96.30;;;;;;5132380;27;20058;-83
2021/01/29 02:33:03;;;;;;;31.13;14.95;;;2.50;96.40;;;;;;5129602;27;20602;-84
2021/01/29 02:35:44;;;;;;;26.83;14.82;;;2.50;96.40;;;;;;5122885;27;20705;-83
2021/01/29 02:38:31;;;;;;;27.08;15.38;;;2.50;96.40;;;;;;5132886;27;20070;-83
2021/01/29 02:41:18;;;;;;;29.27;14.70;;;2.50;96.40;;;;;;5116111;27;20097;-83
2021/01/29 02:44:00;;;;;;;32.00;15.25;;;2.50;96.40;;;;;;5133273;27;20118;-82
2021/01/29 02:46:53;;;;;;;32.00;16.45;;;2.60;96.40;;;;;;5128029;27;20043;-83
2021/01/29 02:49:39;;;;;;;33.25;16.75;;;2.50;96.30;;;;;;5127543;27;20418;-82
2021/01/29 02:52:17;;;;;;;27.88;15.60;;;2.60;96.40;;;;;;5088032;27;20051;-82
2021/01/29 02:55:01;;;;;;;30.25;16.38;;;2.60;96.40;;;;;;5133613;27;20035;-83
2021/01/29 02:58:05;;;;;;;33.35;17.33;;;2.50;96.40;;;;;;5129965;27;20039;-82
2021/01/29 03:00:43;;;;;;;31.20;16.90;;;2.60;96.40;;;;;;5127303;27;20031;-83
2021/01/29 03:03:38;;;;;;;31.02;16.20;;;2.50;96.40;;;;;;5130272;27;20088;-83
2021/01/29 03:06:26;;;;;;;28.50;16.17;;;2.50;96.40;;;;;;5103032;27;20058;-82
2021/01/29 03:09:03;;;;;;;33.75;17.45;;;2.50;96.40;;;;;;5129483;27;20035;-83
2021/01/29 03:12:18;;;;;;;31.88;16.80;;;2.50;96.40;;;;;;5128289;27;20035;-82
2021/01/29 03:15:03;;;;;;;34.63;18.33;;;2.50;96.40;;;;;;5123954;27;20047;-83
2021/01/29 03:17:41;;;;;;;29.90;16.73;;;2.50;96.30;;;;;;5129739;27;20130;-83
2021/01/29 03:20:14;;;;;;;33.50;18.02;;;2.50;96.40;;;;;;5145243;27;20121;-83
2021/01/29 03:22:48;;;;;;;34.78;17.58;;;2.50;96.40;;;;;;5129019;27;20486;-82
2021/01/29 03:25:20;;;;;;;30.00;16.80;;;2.50;96.40;;;;;;5128312;27;20051;-81
2021/01/29 03:27:53;;;;;;;32.63;17.30;;;2.50;96.40;;;;;;5132082;27;20035;-83
2021/01/29 03:30:26;;;;;;;34.85;17.23;;;2.50;96.40;;;;;;5129386;27;20080;-83
2021/01/29 03:32:56;;;;;;;32.75;17.60;;;2.50;96.40;;;;;;5131227;27;20035;-83
2021/01/29 03:36:00;;;;;;;31.48;17.40;;;2.50;96.40;;;;;;5129360;27;20048;-83
2021/01/29 03:38:44;;;;;;;33.75;17.15;;;2.50;96.40;;;;;;5132173;27;20043;-83
2021/01/29 03:41:23;;;;;;;33.63;18.05;;;2.50;96.50;;;;;;5129786;27;20034;-83
2021/01/29 03:44:16;;;;;;;34.25;17.13;;;2.50;96.40;;;;;;5127844;27;20031;-83
2021/01/29 03:47:06;;;;;;;31.55;16.77;;;2.50;96.40;;;;;;5128711;27;20118;-82
2021/01/29 03:49:53;;;;;;;33.30;17.73;;;2.50;96.50;;;;;;5130578;27;20043;-83
2021/01/29 03:52:28;;;;;;;36.55;18.45;;;2.50;96.40;;;;;;5129778;27;20043;-81
2021/01/29 03:55:15;;;;;;;36.88;17.48;;;2.60;96.40;;;;;;5128215;27;20050;-83
2021/01/29 03:58:03;;;;;;;34.33;17.25;;;2.50;96.40;;;;;;5129879;27;20109;-83
2021/01/29 04:01:05;;;;;;;31.95;16.98;;;2.50;96.40;;;;;;5127480;27;20097;-83
2021/01/29 04:04:00;;;;;;;36.13;18.10;;;2.50;96.40;;;;;;5074771;28;20482;-83
2021/01/29 04:06:29;;;;;;;36.63;17.30;;;2.50;96.40;;;;;;5126730;27;20543;-83
2021/01/29 04:09:03;;;;;;;36.25;17.23;;;2.50;96.50;;;;;;5125542;27;21665;-82
2021/01/29 04:11:52;;;;;;;36.47;18.63;;;2.50;96.50;;;;;;5111673;27;20046;-82
2021/01/29 04:14:40;;;;;;;39.17;19.08;;;2.50;96.50;;;;;;5129453;27;20049;-81
2021/01/29 04:17:17;;;;;;;36.33;17.95;;;2.50;96.50;;;;;;5128647;27;20035;-83
2021/01/29 04:19:46;;;;;;;35.85;17.83;;;2.50;96.50;;;;;;5126576;27;20419;-83
2021/01/29 04:22:24;;;;;;;34.78;17.85;;;2.50;96.60;;;;;;5132191;27;20061;-83
2021/01/29 04:25:03;;;;;;;36.20;18.85;;;2.50;96.50;;;;;;5130727;27;20035;-83
2021/01/29 04:27:34;;;;;;;38.10;18.48;;;2.50;96.60;;;;;;5127662;27;20039;-83
2021/01/29 04:30:08;;;;;;;43.28;18.48;;;2.50;96.60;;;;;;5138283;27;20055;-83
2021/01/29 04:32:44;;;;;;;37.65;18.65;;;2.50;96.50;;;;;;5128921;27;20039;-83
2021/01/29 04:35:13;;;;;;;39.17;18.17;;;2.50;96.50;;;;;;5128126;27;20049;-83
2021/01/29 04:37:55;;;;;;;39.83;17.95;;;2.50;96.50;;;;;;5129114;27;20067;-82
2021/01/29 04:40:36;;;;;;;37.28;17.80;;;2.50;96.60;;;;;;5130678;27;20394;-81
2021/01/29 04:43:19;;;;;;;35.88;17.92;;;2.50;96.60;;;;;;5129339;27;20068;-83
2021/01/29 04:45:51;;;;;;;41.08;19.15;;;2.50;96.60;;;;;;5126202;27;20047;-83
2021/01/29 04:48:43;;;;;;;38.97;18.27;;;2.50;96.60;;;;;;5129084;27;20035;-83
2021/01/29 04:51:35;;;;;;;37.58;17.20;;;2.50;96.60;;;;;;5130630;28;20070;-82
2021/01/29 04:54:49;;;;;;;35.28;17.13;;;2.50;96.60;;;;;;5127929;28;20454;-82
2021/01/29 04:57:50;;;;;;;36.53;17.45;;;2.50;96.60;;;;;;5112528;27;20095;-83
2021/01/29 05:00:27;;;;;;;35.65;17.15;;;2.50;96.60;;;;;;5066807;28;20053;-83
2021/01/29 05:03:02;;;;;;;34.25;17.35;;;2.50;96.60;;;;;;5119864;27;20387;-82
2021/01/29 05:05:46;;;;;;;35.25;17.38;;;2.40;96.50;;;;;;5130052;28;20063;-82
2021/01/29 05:08:40;;;;;;;32.92;16.35;;;2.40;96.50;;;;;;5128543;27;20096;-83
2021/01/29 05:11:09;;;;;;;32.08;16.42;;;2.40;96.50;;;;;;5121697;28;20035;-83
2021/01/29 05:14:12;;;;;;;35.13;17.10;;;2.40;96.50;;;;;;5129249;27;20160;-82
2021/01/29 05:16:44;;;;;;;32.80;17.13;;;2.40;96.50;;;;;;5125964;27;20076;-82
2021/01/29 05:19:28;;;;;;;34.72;17.40;;;2.40;96.50;;;;;;5128589;27;20039;-83
2021/01/29 05:21:54;;;;;;;29.95;16.17;;;2.40;96.50;;;;;;5128043;27;20065;-82
2021/01/29 05:24:53;;;;;;;30.85;15.77;;;2.40;96.50;;;;;;5130305;27;20123;-82
2021/01/29 05:27:43;;;;;;;34.30;16.55;;;2.40;96.50;;;;;;5141366;27;20042;-82
2021/01/29 05:30:37;;;;;;;30.30;15.80;;;2.40;96.50;;;;;;5133087;27;20043;-82
2021/01/29 05:33:25;;;;;;;27.77;15.20;;;2.40;96.50;;;;;;5130249;27;20499;-83
2021/01/29 05:36:29;;;;;;;27.52;14.57;;;2.40;96.50;;;;;;5132122;27;20039;-82
2021/01/29 05:38:58;;;;;;;25.95;13.82;;;2.40;96.50;;;;;;5132673;27;20384;-81
2021/01/29 05:41:56;;;;;;;26.40;14.70;;;2.40;96.50;;;;;;5134107;27;20047;-81
2021/01/29 05:44:53;;;;;;;25.35;13.43;;;2.40;96.50;;;;;;5130093;27;20128;-83
2021/01/29 05:47:41;;;;;;;22.98;12.90;;;2.30;96.50;;;;;;5110889;27;20059;-82
2021/01/29 05:50:38;;;;;;;24.55;13.18;;;2.30;96.50;;;;;;5130870;27;20083;-82
2021/01/29 05:53:11;;;;;;;23.50;13.55;;;2.30;96.50;;;;;;5131848;27;20471;-82
2021/01/29 05:55:57;;;;;;;23.60;12.63;;;2.30;96.50;;;;;;5132073;27;20091;-82
2021/01/29 05:58:40;;;;;;;22.63;12.60;;;2.30;96.50;;;;;;5130090;27;20038;-81
2021/01/29 06:01:12;;;;;;;21.35;12.52;;;2.30;96.50;;;;;;5131033;27;20072;-82
2021/01/29 06:03:43;;;;;;;21.70;11.43;;;2.30;96.50;;;;;;5117669;27;20066;-82
2021/01/29 06:06:37;;;;;;;21.83;11.95;;;2.30;96.50;;;;;;5133460;27;20043;-82
2021/01/29 06:09:37;;;;;;;21.35;12.38;;;2.30;96.50;;;;;;5129036;27;20720;-83
2021/01/29 06:12:30;;;;;;;19.73;11.20;;;2.30;96.70;;;;;;5130299;27;20479;-82
2021/01/29 06:15:14;;;;;;;19.23;10.80;;;2.20;96.50;;;;;;5132446;27;20035;-83
2021/01/29 06:18:04;;;;;;;16.85;10.48;;;2.30;96.50;;;;;;5133319;27;20039;-82
2021/01/29 06:20:45;;;;;;;20.17;11.45;;;2.30;96.50;;;;;;5130473;27;20183;-82
2021/01/29 06:23:22;;;;;;;17.73;11.00;;;2.30;96.50;;;;;;5129381;27;20121;-82
2021/01/29 06:25:48;;;;;;;15.55;10.18;;;2.30;96.50;;;;;;5134482;27;20218;-82
2021/01/29 06:28:33;;;;;;;17.58;10.45;;;2.20;96.50;;;;;;5134527;27;20420;-82
2021/01/29 06:31:32;;;;;;;17.35;10.27;;;2.20;96.50;;;;;;5131054;27;20050;-82
2021/01/29 06:34:06;;;;;;;16.08;9.93;;;2.20;96.50;;;;;;5130593;27;20039;-82
2021/01/29 06:36:51;;;;;;;17.38;10.65;;;2.20;96.40;;;;;;5130377;27;20080;-82
2021/01/29 06:39:56;;;;;;;14.38;9.20;;;2.20;96.40;;;;;;5133878;27;20049;-82
2021/01/29 06:42:21;;;;;;;14.00;9.27;;;2.20;96.40;;;;;;5114092;27;20051;-82
2021/01/29 06:45:11;;;;;;;15.20;9.77;;;2.20;96.40;;;;;;5128970;27;20707;-81
2021/01/29 06:47:59;;;;;;;15.73;9.65;;;2.20;96.40;;;;;;5129292;27;20031;-81
2021/01/29 06:50:43;;;;;;;14.60;9.15;;;2.20;96.40;;;;;;5132883;27;20530;-82
2021/01/29 06:53:23;;;;;;;14.90;9.63;;;2.10;96.40;;;;;;5131593;27;20042;-82
2021/01/29 06:56:25;;;;;;;14.48;9.32;;;2.10;96.40;;;;;;5128091;27;20196;-82
2021/01/29 06:59:35;;;;;;;13.05;8.73;;;2.10;96.40;;;;;;5126296;27;20047;-81
2021/01/29 07:02:34;;;;;;;14.13;8.98;;;2.10;96.40;;;;;;5055418;28;20047;-81
2021/01/29 07:05:27;;;;;;;14.15;9.55;;;2.10;96.40;;;;;;5069276;28;20045;-82
2021/01/29 07:08:14;;;;;;;14.20;9.60;;;2.10;96.40;;;;;;5125544;27;20057;-80
2021/01/29 07:11:05;;;;;;;14.80;10.00;;;2.10;96.40;;;;;;5127150;27;20035;-81
2021/01/29 07:13:58;;;;;;;13.75;8.93;;;2.10;96.40;;;;;;5121223;27;20031;-80
2021/01/29 07:16:24;;;;;;;14.23;9.50;;;2.10;96.50;;;;;;5130809;27;20498;-80
2021/01/29 07:19:14;;;;;;;14.73;9.63;;;2.10;96.40;;;;;;5129543;27;20031;-81
2021/01/29 07:21:51;;;;;;;14.80;9.77;;;2.10;96.40;;;;;;5128303;27;20047;-80
2021/01/29 07:24:23;;;;;;;14.07;9.60;;;2.10;96.40;;;;;;5133213;27;20035;-81
2021/01/29 07:27:22;;;;;;;13.90;9.45;;;2.10;96.40;;;;;;5130932;27;20042;-82
2021/01/29 07:30:41;;;;;;;13.95;9.52;;;2.10;96.40;;;;;;5130270;27;20047;-83
2021/01/29 07:33:26;;;;;;;14.13;9.55;;;2.10;96.40;;;;;;5068823;28;20044;-83
2021/01/29 07:36:15;;;;;;;14.30;9.57;;;2.10;96.40;;;;;;5121759;27;20121;-84
2021/01/29 07:38:57;;;;;;;13.25;9.60;;;2.10;96.40;;;;;;5128824;27;20114;-83
2021/01/29 07:41:44;;;;;;;12.52;8.70;;;2.10;96.40;;;;;;5131775;27;20039;-84
2021/01/29 07:44:45;;;;;;;13.93;9.45;;;2.10;96.40;;;;;;5130517;27;20106;-83
2021/01/29 07:47:11;;;;;;;15.85;9.90;;;2.10;96.40;;;;;;5128262;27;20100;-83
2021/01/29 07:49:53;;;;;;;12.82;9.57;;;2.10;96.40;;;;;;5127896;27;20429;-83
2021/01/29 07:52:46;;;;;;;13.40;9.55;;;2.10;96.40;;;;;;5131178;27;20047;-84
2021/01/29 07:55:27;;;;;;;14.15;9.68;;;2.10;96.40;;;;;;5130680;27;20039;-84
2021/01/29 07:58:13;;;;;;;13.80;9.50;;;2.10;96.40;;;;;;5128073;27;20046;-83
2021/01/29 08:00:54;;;;;;;13.98;9.75;;;2.10;96.40;;;;;;5128050;27;20114;-82
2021/01/29 08:03:39;;;;;;;14.73;9.32;;;2.10;96.40;;;;;;5113612;27;20107;-82
2021/01/29 08:06:46;;;;;;;13.88;9.18;;;2.10;96.40;;;;;;5131625;27;20088;-81
2021/01/29 08:09:18;;;;;;;15.48;9.45;;;2.20;96.50;;;;;;5124609;27;20054;-82
2021/01/29 08:11:49;;;;;;;13.82;9.38;;;2.20;96.50;;;;;;5126401;27;20394;-81
2021/01/29 08:14:21;;;;;;;12.93;8.95;;;2.20;96.80;;;;;;5129889;27;20057;-81
2021/01/29 08:17:05;;;;;;;14.20;8.90;;;2.20;96.50;;;;;;5129453;27;20088;-82
2021/01/29 08:19:45;;;;;;;14.40;8.73;;;2.20;96.50;;;;;;5128779;27;20031;-82
2021/01/29 08:22:14;;;;;;;12.75;8.75;;;2.20;96.50;;;;;;5135463;27;20039;-82
2021/01/29 08:24:58;;;;;;;11.45;8.25;;;2.20;96.50;;;;;;5150384;27;20496;-82
2021/01/29 08:27:46;;;;;;;12.48;7.95;;;2.20;96.50;;;;;;5129859;27;20045;-82
2021/01/29 08:30:44;;;;;;;12.38;8.55;;;2.20;96.50;;;;;;5127090;27;20122;-82
2021/01/29 08:33:47;;;;;;;11.40;8.05;;;2.20;96.50;;;;;;5074672;27;20448;-82
2021/01/29 08:36:42;;;;;;;11.45;8.23;;;2.20;96.50;;;;;;5121798;27;20040;-84
2021/01/29 08:39:08;;;;;;;13.45;7.78;;;2.20;96.50;;;;;;5131922;27;20035;-84
2021/01/29 08:41:58;;;;;;;11.93;7.63;;;2.20;96.60;;;;;;5128415;27;20038;-83
2021/01/29 08:45:02;;;;;;;9.75;7.13;;;2.20;96.80;;;;;;5128569;27;20124;-81
2021/01/29 08:47:37;;;;;;;10.30;6.85;;;2.30;96.50;;;;;;5128744;27;20104;-82
2021/01/29 08:50:15;;;;;;;10.25;6.95;;;2.30;96.50;;;;;;5126855;27;20532;-83
2021/01/29 08:53:17;;;;;;;9.93;6.97;;;2.30;96.50;;;;;;5127253;27;20041;-82
2021/01/29 08:55:57;;;;;;;11.13;7.30;;;2.40;96.50;;;;;;5065438;28;20112;-82
2021/01/29 08:58:44;;;;;;;10.25;7.47;;;2.30;96.50;;;;;;5141988;27;20040;-81
2021/01/29 09:01:29;;;;;;;11.02;7.10;;;2.30;96.50;;;;;;5135215;27;20050;-82
2021/01/29 09:04:02;;;;;;;9.95;6.85;;;2.30;96.50;;;;;;5132053;27;20510;-82
2021/01/29 09:06:36;;;;;;;10.05;6.85;;;2.30;96.50;;;;;;5132114;27;20042;-82
2021/01/29 09:09:06;;;;;;;10.00;6.90;;;2.40;96.60;;;;;;5132560;27;20493;-82
2021/01/29 09:12:01;;;;;;;9.82;7.10;;;2.40;96.50;;;;;;5133267;27;20292;-81
2021/01/29 09:14:41;;;;;;;10.50;6.87;;;2.40;96.50;;;;;;5131411;27;20120;-82
2021/01/29 09:17:21;;;;;;;10.88;7.25;;;2.40;96.50;;;;;;5132087;27;20039;-82
2021/01/29 09:20:00;;;;;;;10.43;7.40;;;2.40;96.60;;;;;;5138113;27;20154;-82
2021/01/29 09:22:39;;;;;;;9.85;6.93;;;2.40;96.60;;;;;;5135373;27;20051;-82
2021/01/29 09:25:31;;;;;;;8.90;6.10;;;2.50;96.90;;;;;;5132352;27;20417;-82
2021/01/29 09:28:17;;;;;;;8.98;6.35;;;2.50;96.60;;;;;;5101351;27;20039;-83
2021/01/29 09:31:00;;;;;;;10.02;6.93;;;2.50;96.90;;;;;;5128396;27;20041;-79
2021/01/29 09:33:53;;;;;;;8.52;6.35;;;2.50;96.60;;;;;;5116491;27;20047;-79
2021/01/29 09:36:21;;;;;;;8.43;6.10;;;2.50;96.60;;;;;;5134746;27;20039;-78
2021/01/29 09:38:54;;;;;;;9.40;6.55;;;2.50;96.60;;;;;;5129615;27;20053;-79
2021/01/29 09:41:24;;;;;;;8.15;6.25;;;2.50;96.60;;;;;;5132071;27;20422;-79
2021/01/29 09:43:53;;;;;;;10.00;6.40;;;2.50;96.60;;;;;;5134481;27;20093;-77
2021/01/29 09:46:27;;;;;;;9.73;6.30;;;2.60;96.60;;;;;;5131720;27;20054;-77
2021/01/29 09:49:03;;;;;;;9.00;6.40;;;2.60;96.60;;;;;;5129464;27;20036;-77
2021/01/29 09:51:29;;;;;;;9.73;6.20;;;2.70;96.60;;;;;;5116415;27;20527;-77
2021/01/29 09:54:21;;;;;;;9.13;6.53;;;2.60;96.60;;;;;;5132017;27;20122;-77
2021/01/29 09:56:53;;;;;;;8.60;6.20;;;2.70;96.60;;;;;;5115447;27;20047;-78
2021/01/29 09:59:22;;;;;;;9.13;6.63;;;2.70;96.60;;;;;;5131867;27;20097;-78
2021/01/29 10:02:07;;;;;;;9.80;6.93;;;2.70;96.60;;;;;;5132933;27;20056;-78
2021/01/29 10:05:11;;;;;;;8.43;6.13;;;2.70;96.60;;;;;;5131535;27;20046;-77
2021/01/29 10:07:42;;;;;;;8.40;6.20;;;2.70;96.70;;;;;;5129595;27;20281;-78
2021/01/29 10:10:28;;;;;;;9.25;5.90;;;2.70;96.70;;;;;;5130816;27;20052;-78
2021/01/29 10:13:37;;;;;;;7.63;5.80;;;2.80;96.70;;;;;;5133644;27;20047;-78
2021/01/29 10:16:18;;;;;;;10.20;6.38;;;2.80;96.60;;;;;;5113212;27;20498;-78
2021/01/29 10:19:11;;;;;;;9.45;6.50;;;2.80;96.50;;;;;;5148114;27;20519;-77
2021/01/29 10:21:57;;;;;;;8.65;5.75;;;2.90;96.50;;;;;;5128439;27;20039;-78
2021/01/29 10:24:52;;;;;;;8.35;5.85;;;2.90;96.60;;;;;;5088968;27;20071;-77
2021/01/29 10:27:37;;;;;;;10.85;6.07;;;2.90;96.60;;;;;;5116576;27;20125;-78
2021/01/29 10:30:13;;;;;;;7.78;5.43;;;2.90;96.60;;;;;;5132994;27;20054;-77
2021/01/29 10:32:42;;;;;;;8.32;5.80;;;2.90;96.60;;;;;;5128625;27;20449;-77
2021/01/29 10:35:26;;;;;;;9.20;6.20;;;3.00;96.70;;;;;;5128924;27;20054;-77
2021/01/29 10:38:22;;;;;;;9.13;5.85;;;3.00;96.90;;;;;;5112226;27;20111;-76
2021/01/29 10:41:02;;;;;;;;;;;3.00;96.70;;;;;;5131870;27;20126;-77
2021/01/29 10:43:36;;;;;;;8.25;5.30;;;3.10;96.70;;;;;;5131006;27;20001;-77
2021/01/29 10:46:42;;;;;;;9.25;5.93;;;3.10;96.70;;;;;;5130874;27;20062;-77
2021/01/29 10:49:11;;;;;;;;;;;3.10;96.70;;;;;;5118951;27;20391;-77
2021/01/29 10:51:53;;;;;;;10.63;6.15;;;3.20;96.80;;;;;;5131322;27;19919;-78
2021/01/29 10:54:24;;;;;;;8.30;5.85;;;3.20;97.00;;;;;;5130351;27;20041;-77
2021/01/29 10:57:19;;;;;;;9.10;5.70;;;3.20;96.80;;;;;;5130557;27;20031;-77
2021/01/29 11:00:06;;;;;;;9.73;5.90;;;3.20;96.80;;;;;;5113995;27;20070;-78
2021/01/29 11:02:37;;;;;;;11.15;6.88;;;3.30;96.80;;;;;;5132981;27;20122;-77
2021/01/29 11:05:10;;;;;;;10.70;6.90;;;3.40;96.80;;;;;;5128274;27;20039;-77
2021/01/29 11:07:42;;;;;;;11.93;6.75;;;3.40;96.80;;;;;;5130130;27;20039;-77
2021/01/29 11:10:14;;;;;;;9.57;6.45;;;3.40;96.80;;;;;;5131906;27;20127;-78
2021/01/29 11:12:54;;;;;;;12.45;8.02;;;3.40;96.80;;;;;;5129934;27;20390;-86
2021/01/29 11:15:24;;;;;;;13.40;8.75;;;3.50;96.90;;;;;;5126865;27;20043;-78
2021/01/29 11:17:58;;;;;;;11.68;7.43;;;3.50;96.90;;;;;;5131127;27;20047;-78
2021/01/29 11:20:36;;;;;;;13.02;8.38;;;3.50;97.00;;;;;;5130070;27;20546;-77
2021/01/29 11:23:39;;;;;;;11.45;7.60;;;3.60;97.00;;;;;;5126868;27;20452;-77
2021/01/29 11:26:10;;;;;;;14.70;8.25;;;3.60;97.00;;;;;;5110167;27;20051;-78
2021/01/29 11:28:45;;;;;;;14.45;7.88;;;3.70;97.00;;;;;;5132015;27;20058;-78
2021/01/29 11:31:27;;;;;;;20.90;8.80;;;3.70;97.00;;;;;;5130495;27;20192;-78
2021/01/29 11:33:58;;;;;;;26.30;15.05;;;3.70;97.00;;;;;;5129202;27;20034;-78
2021/01/29 11:36:31;;;;;;;26.13;8.45;;;;;;;;;;5131517;27;20039;-77
2021/01/29 11:39:23;;;;;;;32.10;9.23;;;4.20;97.20;;;;;;5130688;27;20568;-77
2021/01/29 11:42:37;;;;;;;37.75;8.82;;;4.60;97.80;;;;;;5131155;27;20426;-78
2021/01/29 11:45:07;;;;;;;30.40;7.60;;;5.20;98.10;;;;;;5126952;27;20126;-78
2021/01/29 11:47:48;;;;;;;29.90;6.90;;;5.60;98.40;;;;;;5130585;27;20078;-78
2021/01/29 11:50:31;;;;;;;25.98;7.03;;;6.20;99.20;;;;;;5128200;27;20074;-78
2021/01/29 11:53:16;;;;;;;27.25;5.47;;;;;;;;;;5128742;27;20039;-78
2021/01/29 11:55:53;;;;;;;16.80;4.20;;;6.90;98.70;;;;;;5128080;27;20066;-79
2021/01/29 11:58:23;;;;;;;27.83;6.15;;;7.10;98.60;;;;;;5129720;27;20515;-78
2021/01/29 12:01:02;;;;;;;18.88;5.72;;;7.30;97.80;;;;;;5130960;27;20047;-78
2021/01/29 12:03:46;;;;;;;24.90;5.35;;;7.40;97.20;;;;;;5128595;27;20043;-78
2021/01/29 12:06:23;;;;;;;31.20;7.40;;;7.50;96.90;;;;;;5127846;27;20043;-77
2021/01/29 12:09:14;;;;;;;24.20;6.32;;;7.50;96.90;;;;;;5111189;27;20138;-78
2021/01/29 12:12:01;;;;;;;31.70;7.63;;;7.60;96.30;;;;;;5138658;27;20086;-80
2021/01/29 12:14:52;;;;;;;29.33;6.65;;;7.60;96.30;;;;;;5128995;27;20046;-82
2021/01/29 12:17:23;;;;;;;31.38;6.30;;;7.60;96.00;;;;;;5128459;27;20039;-81
2021/01/29 12:19:50;;;;;;;25.70;5.47;;;7.60;96.10;;;;;;5129007;27;20043;-82
2021/01/29 12:22:18;;;;;;;29.73;5.95;;;7.60;96.20;;;;;;5131339;27;20047;-82
2021/01/29 12:25:18;;;;;;;33.47;6.65;;;7.70;96.20;;;;;;5127319;27;20047;-81
2021/01/29 12:27:51;;;;;;;29.33;5.43;;;7.70;95.60;;;;;;5120979;27;20043;-80
2021/01/29 12:30:46;;;;;;;18.23;4.38;;;7.70;95.70;;;;;;5126506;27;20498;-82
2021/01/29 12:33:18;;;;;;;22.20;4.77;;;7.80;95.30;;;;;;5112222;27;20043;-82
2021/01/29 12:35:56;;;;;;;22.23;4.28;;;7.90;95.30;;;;;;5127361;27;20039;-81
2021/01/29 12:38:41;;;;;;;26.13;4.95;;;7.70;95.30;;;;;;5128279;27;20997;-82
2021/01/29 12:41:16;;;;;;;22.53;5.17;;;7.80;95.20;;;;;;5130666;27;20027;-82
2021/01/29 12:44:00;;;;;;;21.92;4.75;;;7.80;95.00;;;;;;5127570;27;20035;-79
2021/01/29 12:46:32;;;;;;;22.52;4.65;;;7.80;94.90;;;;;;5128161;27;20045;-81
2021/01/29 12:49:38;;;;;;;26.17;5.75;;;7.80;94.90;;;;;;5128198;27;20083;-82
2021/01/29 12:52:06;;;;;;;19.95;4.13;;;7.90;94.80;;;;;;5129724;27;20039;-81
2021/01/29 12:54:43;;;;;;;22.50;4.68;;;7.90;94.40;;;;;;5127880;27;20039;-80
2021/01/29 12:57:22;;;;;;;26.15;5.28;;;8.00;94.20;;;;;;5127530;27;20119;-81
2021/01/29 12:59:54;;;;;;;24.88;5.07;;;7.90;94.50;;;;;;5130172;28;20041;-81
2021/01/29 13:02:33;;;;;;;23.95;4.80;;;7.90;94.50;;;;;;5126720;28;20046;-82
2021/01/29 13:05:17;;;;;;;22.80;4.88;;;7.90;94.60;;;;;;5127089;27;20371;-81
2021/01/29 13:08:08;;;;;;;28.27;5.70;;;7.90;94.80;;;;;;5111788;27;20462;-80
2021/01/29 13:11:04;;;;;;;23.70;5.40;;;7.80;94.80;;;;;;5144701;27;20042;-82
2021/01/29 13:13:52;;;;;;;;;;;7.70;95.00;;;;;;5130508;27;20031;-81
2021/01/29 13:16:27;;;;;;;22.15;4.18;;;7.80;94.80;;;;;;5127942;27;19919;-82
2021/01/29 13:19:04;;;;;;;22.67;4.57;;;7.80;94.90;;;;;;5126499;27;20119;-81
2021/01/29 13:21:46;;;;;;;22.85;5.25;;;7.80;95.10;;;;;;5128860;28;20047;-82
2021/01/29 13:24:29;;;;;;;30.23;4.78;;;7.80;95.20;;;;;;5128033;27;20390;-81
2021/01/29 13:26:59;;;;;;;22.05;4.50;;;7.70;95.40;;;;;;5126320;27;20479;-79
2021/01/29 13:29:28;;;;;;;25.98;4.32;;;7.70;95.60;;;;;;5130021;27;20055;-82
2021/01/29 13:32:15;;;;;;;26.10;4.88;;;7.70;95.70;;;;;;5128228;27;20074;-83
2021/01/29 13:34:42;;;;;;;26.65;4.78;;;7.70;95.70;;;;;;5126144;27;20046;-80
2021/01/29 13:37:28;;;;;;;27.05;5.05;;;7.70;95.50;;;;;;5129411;27;20077;-81
2021/01/29 13:40:13;;;;;;;23.15;3.95;;;7.80;95.30;;;;;;5129991;28;20047;-82
2021/01/29 13:42:41;;;;;;;;;;;7.80;95.20;;;;;;5128787;27;20479;-79
2021/01/29 13:45:09;;;;;;;22.67;4.80;;;7.80;95.20;;;;;;5124516;27;19934;-81
2021/01/29 13:47:45;;;;;;;24.88;5.18;;;7.90;95.00;;;;;;5127331;27;20064;-82
2021/01/29 13:50:31;;;;;;;21.08;4.45;;;7.90;95.00;;;;;;5133705;27;20386;-81
2021/01/29 13:53:01;;;;;;;21.35;5.18;;;7.90;94.70;;;;;;5130101;27;20039;-82